sensor_id;sensor_type;location;lat;lon;timestamp;P1;durP1;ratioP1;P2;durP2;ratioP2
42904;SDS011;28550;51.228;4.528;2024-03-22T00:01:49;81.25;;;36.15;;
42904;SDS011;28550;51.228;4.528;2024-03-22T00:04:19;70.45;;;34.65;;
42904;SDS011;28550;51.228;4.528;2024-03-22T00:06:46;72.40;;;34.97;;
42904;SDS011;28550;51.228;4.528;2024-03-22T00:09:17;67.72;;;33.60;;
42904;SDS011;28550;51.228;4.528;2024-03-22T00:11:43;73.25;;;35.97;;
42904;SDS011;28550;51.228;4.528;2024-03-22T00:14:11;66.95;;;34.78;;
42904;SDS011;28550;51.228;4.528;2024-03-22T00:36:16;66.57;;;33.42;;
42904;SDS011;28550;51.228;4.528;2024-03-22T00:38:48;72.45;;;34.20;;
42904;SDS011;28550;51.228;4.528;2024-03-22T00:41:13;66.57;;;33.05;;
42904;SDS011;28550;51.228;4.528;2024-03-22T00:43:52;70.05;;;34.25;;
42904;SDS011;28550;51.228;4.528;2024-03-22T00:46:23;67.82;;;31.67;;
42904;SDS011;28550;51.228;4.528;2024-03-22T00:48:49;64.88;;;32.13;;
42904;SDS011;28550;51.228;4.528;2024-03-22T00:51:18;62.95;;;33.75;;
42904;SDS011;28550;51.228;4.528;2024-03-22T00:53:47;68.45;;;33.13;;
42904;SDS011;28550;51.228;4.528;2024-03-22T00:56:13;69.50;;;32.80;;
42904;SDS011;28550;51.228;4.528;2024-03-22T00:58:41;65.78;;;31.90;;
42904;SDS011;28550;51.228;4.528;2024-03-22T01:01:07;64.28;;;32.00;;
42904;SDS011;28550;51.228;4.528;2024-03-22T01:03:37;71.45;;;32.78;;
42904;SDS011;28550;51.228;4.528;2024-03-22T01:09:37;65.68;;;33.17;;
42904;SDS011;28550;51.228;4.528;2024-03-22T01:12:05;64.90;;;29.27;;
42904;SDS011;28550;51.228;4.528;2024-03-22T01:14:37;69.07;;;32.95;;
42904;SDS011;28550;51.228;4.528;2024-03-22T01:17:16;60.95;;;32.63;;
42904;SDS011;28550;51.228;4.528;2024-03-22T01:20:24;68.80;;;34.22;;
42904;SDS011;28550;51.228;4.528;2024-03-22T01:23:10;70.20;;;32.75;;
42904;SDS011;28550;51.228;4.528;2024-03-22T01:25:41;66.50;;;32.08;;
42904;SDS011;28550;51.228;4.528;2024-03-22T01:28:07;65.20;;;32.65;;
42904;SDS011;28550;51.228;4.528;2024-03-22T01:30:32;65.78;;;34.42;;
42904;SDS011;28550;51.228;4.528;2024-03-22T01:33:02;66.28;;;33.53;;
42904;SDS011;28550;51.228;4.528;2024-03-22T01:35:36;68.97;;;35.10;;
42904;SDS011;28550;51.228;4.528;2024-03-22T01:41:22;65.00;;;32.67;;
42904;SDS011;28550;51.228;4.528;2024-03-22T01:43:49;66.35;;;33.17;;
42904;SDS011;28550;51.228;4.528;2024-03-22T01:46:14;61.28;;;32.72;;
42904;SDS011;28550;51.228;4.528;2024-03-22T01:48:44;65.40;;;32.65;;
42904;SDS011;28550;51.228;4.528;2024-03-22T01:51:24;63.60;;;32.50;;
42904;SDS011;28550;51.228;4.528;2024-03-22T01:53:51;66.80;;;33.15;;
42904;SDS011;28550;51.228;4.528;2024-03-22T01:57:11;60.92;;;32.25;;
42904;SDS011;28550;51.228;4.528;2024-03-22T02:04:11;58.95;;;29.30;;
42904;SDS011;28550;51.228;4.528;2024-03-22T02:06:43;59.88;;;31.27;;
42904;SDS011;28550;51.228;4.528;2024-03-22T02:09:20;59.38;;;30.40;;
42904;SDS011;28550;51.228;4.528;2024-03-22T02:21:06;69.03;;;30.40;;
42904;SDS011;28550;51.228;4.528;2024-03-22T03:03:58;55.17;;;27.38;;
42904;SDS011;28550;51.228;4.528;2024-03-22T03:06:26;60.53;;;29.65;;
42904;SDS011;28550;51.228;4.528;2024-03-22T03:09:29;54.17;;;27.05;;
42904;SDS011;28550;51.228;4.528;2024-03-22T03:12:10;59.00;;;28.13;;
42904;SDS011;28550;51.228;4.528;2024-03-22T03:18:24;48.72;;;26.70;;
42904;SDS011;28550;51.228;4.528;2024-03-22T03:20:53;57.67;;;27.98;;
42904;SDS011;28550;51.228;4.528;2024-03-22T03:23:22;52.20;;;26.02;;
42904;SDS011;28550;51.228;4.528;2024-03-22T03:25:49;48.22;;;24.20;;
42904;SDS011;28550;51.228;4.528;2024-03-22T03:28:21;49.17;;;25.40;;
42904;SDS011;28550;51.228;4.528;2024-03-22T03:30:51;44.88;;;23.60;;
42904;SDS011;28550;51.228;4.528;2024-03-22T03:33:38;54.25;;;24.45;;
42904;SDS011;28550;51.228;4.528;2024-03-22T03:36:14;47.60;;;25.00;;
42904;SDS011;28550;51.228;4.528;2024-03-22T03:39:44;47.45;;;24.55;;
42904;SDS011;28550;51.228;4.528;2024-03-22T03:42:10;47.10;;;22.88;;
42904;SDS011;28550;51.228;4.528;2024-03-22T03:44:58;50.65;;;24.73;;
42904;SDS011;28550;51.228;4.528;2024-03-22T03:47:40;48.20;;;23.13;;
42904;SDS011;28550;51.228;4.528;2024-03-22T03:50:21;51.42;;;25.13;;
42904;SDS011;28550;51.228;4.528;2024-03-22T03:52:51;54.25;;;24.40;;
42904;SDS011;28550;51.228;4.528;2024-03-22T03:55:24;52.78;;;24.17;;
42904;SDS011;28550;51.228;4.528;2024-03-22T03:57:50;48.67;;;23.70;;
42904;SDS011;28550;51.228;4.528;2024-03-22T04:00:25;47.28;;;23.30;;
42904;SDS011;28550;51.228;4.528;2024-03-22T04:02:52;47.90;;;24.45;;
42904;SDS011;28550;51.228;4.528;2024-03-22T04:05:20;47.05;;;23.90;;
42904;SDS011;28550;51.228;4.528;2024-03-22T04:08:02;50.08;;;25.00;;
42904;SDS011;28550;51.228;4.528;2024-03-22T04:11:11;43.55;;;22.38;;
42904;SDS011;28550;51.228;4.528;2024-03-22T04:13:37;48.45;;;22.42;;
42904;SDS011;28550;51.228;4.528;2024-03-22T04:16:03;42.35;;;20.65;;
42904;SDS011;28550;51.228;4.528;2024-03-22T04:18:31;43.42;;;22.58;;
42904;SDS011;28550;51.228;4.528;2024-03-22T04:21:01;48.60;;;21.83;;
42904;SDS011;28550;51.228;4.528;2024-03-22T04:23:28;42.50;;;21.55;;
42904;SDS011;28550;51.228;4.528;2024-03-22T04:26:04;47.60;;;22.40;;
42904;SDS011;28550;51.228;4.528;2024-03-22T04:28:39;41.13;;;19.85;;
42904;SDS011;28550;51.228;4.528;2024-03-22T04:31:20;44.00;;;21.35;;
42904;SDS011;28550;51.228;4.528;2024-03-22T04:34:09;37.53;;;19.52;;
42904;SDS011;28550;51.228;4.528;2024-03-22T04:36:40;42.40;;;19.88;;
42904;SDS011;28550;51.228;4.528;2024-03-22T04:39:34;41.47;;;19.33;;
42904;SDS011;28550;51.228;4.528;2024-03-22T04:42:25;38.40;;;19.60;;
42904;SDS011;28550;51.228;4.528;2024-03-22T04:45:16;41.50;;;19.98;;
42904;SDS011;28550;51.228;4.528;2024-03-22T04:47:44;39.53;;;19.02;;
42904;SDS011;28550;51.228;4.528;2024-03-22T04:50:16;38.70;;;19.77;;
42904;SDS011;28550;51.228;4.528;2024-03-22T04:52:42;38.28;;;19.33;;
42904;SDS011;28550;51.228;4.528;2024-03-22T04:55:30;33.53;;;18.67;;
42904;SDS011;28550;51.228;4.528;2024-03-22T04:58:11;39.92;;;16.48;;
42904;SDS011;28550;51.228;4.528;2024-03-22T05:00:58;34.17;;;17.52;;
42904;SDS011;28550;51.228;4.528;2024-03-22T05:03:28;37.47;;;18.52;;
42904;SDS011;28550;51.228;4.528;2024-03-22T05:05:57;36.83;;;17.90;;
42904;SDS011;28550;51.228;4.528;2024-03-22T05:08:46;37.13;;;17.80;;
42904;SDS011;28550;51.228;4.528;2024-03-22T05:11:14;33.60;;;16.48;;
42904;SDS011;28550;51.228;4.528;2024-03-22T05:13:43;39.47;;;18.55;;
42904;SDS011;28550;51.228;4.528;2024-03-22T05:16:15;34.42;;;18.00;;
42904;SDS011;28550;51.228;4.528;2024-03-22T05:18:40;37.90;;;18.33;;
42904;SDS011;28550;51.228;4.528;2024-03-22T05:24:10;37.92;;;17.83;;
42904;SDS011;28550;51.228;4.528;2024-03-22T05:27:08;34.65;;;16.92;;
42904;SDS011;28550;51.228;4.528;2024-03-22T05:33:12;31.55;;;15.60;;
42904;SDS011;28550;51.228;4.528;2024-03-22T05:35:52;35.45;;;16.85;;
42904;SDS011;28550;51.228;4.528;2024-03-22T05:41:16;33.10;;;16.25;;
42904;SDS011;28550;51.228;4.528;2024-03-22T06:26:38;31.70;;;16.20;;
42904;SDS011;28550;51.228;4.528;2024-03-22T06:29:13;31.30;;;15.65;;
42904;SDS011;28550;51.228;4.528;2024-03-22T06:31:42;32.42;;;14.88;;
42904;SDS011;28550;51.228;4.528;2024-03-22T06:34:08;37.17;;;16.33;;
42904;SDS011;28550;51.228;4.528;2024-03-22T06:36:46;32.28;;;16.25;;
42904;SDS011;28550;51.228;4.528;2024-03-22T06:42:18;26.23;;;13.23;;
42904;SDS011;28550;51.228;4.528;2024-03-22T06:44:45;29.52;;;15.15;;
42904;SDS011;28550;51.228;4.528;2024-03-22T06:47:11;31.65;;;15.52;;
42904;SDS011;28550;51.228;4.528;2024-03-22T06:49:57;29.52;;;13.50;;
42904;SDS011;28550;51.228;4.528;2024-03-22T06:52:29;26.42;;;13.90;;
42904;SDS011;28550;51.228;4.528;2024-03-22T06:57:52;28.75;;;13.82;;
42904;SDS011;28550;51.228;4.528;2024-03-22T07:00:59;28.73;;;13.15;;
42904;SDS011;28550;51.228;4.528;2024-03-22T07:03:38;22.55;;;12.23;;
42904;SDS011;28550;51.228;4.528;2024-03-22T07:08:57;20.92;;;11.02;;
42904;SDS011;28550;51.228;4.528;2024-03-22T07:11:52;24.63;;;10.82;;
42904;SDS011;28550;51.228;4.528;2024-03-22T07:14:32;22.60;;;11.85;;
42904;SDS011;28550;51.228;4.528;2024-03-22T07:17:11;20.10;;;11.00;;
42904;SDS011;28550;51.228;4.528;2024-03-22T07:19:43;25.10;;;12.15;;
42904;SDS011;28550;51.228;4.528;2024-03-22T07:22:10;24.58;;;12.60;;
42904;SDS011;28550;51.228;4.528;2024-03-22T07:24:40;20.95;;;11.15;;
42904;SDS011;28550;51.228;4.528;2024-03-22T07:30:33;21.40;;;11.52;;
42904;SDS011;28550;51.228;4.528;2024-03-22T07:33:07;20.40;;;10.98;;
42904;SDS011;28550;51.228;4.528;2024-03-22T07:35:44;22.17;;;11.50;;
42904;SDS011;28550;51.228;4.528;2024-03-22T07:38:13;19.17;;;10.73;;
42904;SDS011;28550;51.228;4.528;2024-03-22T07:40:40;18.85;;;9.63;;
42904;SDS011;28550;51.228;4.528;2024-03-22T07:43:06;18.52;;;9.30;;
42904;SDS011;28550;51.228;4.528;2024-03-22T07:45:38;16.05;;;8.85;;
42904;SDS011;28550;51.228;4.528;2024-03-22T07:48:05;21.85;;;9.60;;
42904;SDS011;28550;51.228;4.528;2024-03-22T07:51:01;15.23;;;8.40;;
42904;SDS011;28550;51.228;4.528;2024-03-22T07:53:27;15.07;;;8.73;;
42904;SDS011;28550;51.228;4.528;2024-03-22T07:55:53;17.80;;;9.30;;
42904;SDS011;28550;51.228;4.528;2024-03-22T07:58:32;16.58;;;9.15;;
42904;SDS011;28550;51.228;4.528;2024-03-22T08:01:42;18.23;;;9.25;;
42904;SDS011;28550;51.228;4.528;2024-03-22T08:04:15;12.98;;;8.13;;
42904;SDS011;28550;51.228;4.528;2024-03-22T08:10:48;13.43;;;8.63;;
42904;SDS011;28550;51.228;4.528;2024-03-22T08:13:24;18.33;;;8.75;;
42904;SDS011;28550;51.228;4.528;2024-03-22T08:16:16;15.18;;;8.65;;
42904;SDS011;28550;51.228;4.528;2024-03-22T08:22:18;16.27;;;8.68;;
42904;SDS011;28550;51.228;4.528;2024-03-22T08:25:02;16.48;;;9.20;;
42904;SDS011;28550;51.228;4.528;2024-03-22T08:27:48;12.93;;;8.13;;
42904;SDS011;28550;51.228;4.528;2024-03-22T08:49:20;15.05;;;8.65;;
42904;SDS011;28550;51.228;4.528;2024-03-22T08:52:30;13.60;;;7.88;;
42904;SDS011;28550;51.228;4.528;2024-03-22T08:55:36;16.02;;;8.50;;
42904;SDS011;28550;51.228;4.528;2024-03-22T08:58:12;16.95;;;8.68;;
42904;SDS011;28550;51.228;4.528;2024-03-22T09:00:47;19.13;;;8.80;;
42904;SDS011;28550;51.228;4.528;2024-03-22T09:03:36;15.90;;;8.48;;
42904;SDS011;28550;51.228;4.528;2024-03-22T09:06:39;15.43;;;9.05;;
42904;SDS011;28550;51.228;4.528;2024-03-22T09:09:14;14.70;;;9.77;;
42904;SDS011;28550;51.228;4.528;2024-03-22T09:11:51;17.38;;;9.75;;
42904;SDS011;28550;51.228;4.528;2024-03-22T09:17:39;22.67;;;13.23;;
42904;SDS011;28550;51.228;4.528;2024-03-22T09:23:37;17.48;;;10.52;;
42904;SDS011;28550;51.228;4.528;2024-03-22T09:26:05;15.88;;;9.82;;
42904;SDS011;28550;51.228;4.528;2024-03-22T09:32:00;16.42;;;9.75;;
42904;SDS011;28550;51.228;4.528;2024-03-22T10:07:20;19.50;;;9.38;;
42904;SDS011;28550;51.228;4.528;2024-03-22T10:11:01;36.88;;;11.40;;
42904;SDS011;28550;51.228;4.528;2024-03-22T10:13:51;17.23;;;9.27;;
42904;SDS011;28550;51.228;4.528;2024-03-22T10:16:36;22.48;;;9.65;;
42904;SDS011;28550;51.228;4.528;2024-03-22T10:19:43;17.73;;;9.30;;
42904;SDS011;28550;51.228;4.528;2024-03-22T10:23:10;20.67;;;10.38;;
42904;SDS011;28550;51.228;4.528;2024-03-22T10:26:06;19.40;;;10.32;;
42904;SDS011;28550;51.228;4.528;2024-03-22T10:29:11;30.73;;;9.75;;
42904;SDS011;28550;51.228;4.528;2024-03-22T10:34:36;21.33;;;10.63;;
42904;SDS011;28550;51.228;4.528;2024-03-22T10:37:08;15.60;;;10.57;;
42904;SDS011;28550;51.228;4.528;2024-03-22T10:40:02;15.77;;;9.80;;
42904;SDS011;28550;51.228;4.528;2024-03-22T10:43:07;26.13;;;10.68;;
42904;SDS011;28550;51.228;4.528;2024-03-22T10:48:48;24.05;;;10.63;;
42904;SDS011;28550;51.228;4.528;2024-03-22T10:51:38;36.30;;;12.30;;
42904;SDS011;28550;51.228;4.528;2024-03-22T10:54:11;21.65;;;11.82;;
42904;SDS011;28550;51.228;4.528;2024-03-22T11:00:20;23.55;;;11.50;;
42904;SDS011;28550;51.228;4.528;2024-03-22T11:06:56;21.90;;;12.25;;
42904;SDS011;28550;51.228;4.528;2024-03-22T11:09:51;21.75;;;12.00;;
42904;SDS011;28550;51.228;4.528;2024-03-22T11:16:22;25.50;;;12.20;;
42904;SDS011;28550;51.228;4.528;2024-03-22T12:05:18;25.55;;;14.38;;
42904;SDS011;28550;51.228;4.528;2024-03-22T12:08:01;28.48;;;13.75;;
42904;SDS011;28550;51.228;4.528;2024-03-22T12:11:07;27.83;;;13.77;;
42904;SDS011;28550;51.228;4.528;2024-03-22T12:14:17;27.95;;;13.40;;
42904;SDS011;28550;51.228;4.528;2024-03-22T12:17:36;24.70;;;12.52;;
42904;SDS011;28550;51.228;4.528;2024-03-22T12:20:11;22.48;;;12.32;;
42904;SDS011;28550;51.228;4.528;2024-03-22T12:35:19;27.63;;;15.60;;
42904;SDS011;28550;51.228;4.528;2024-03-22T12:44:31;28.58;;;13.63;;
42904;SDS011;28550;51.228;4.528;2024-03-22T12:56:44;21.55;;;13.18;;
42904;SDS011;28550;51.228;4.528;2024-03-22T12:59:11;21.45;;;13.35;;
42904;SDS011;28550;51.228;4.528;2024-03-22T13:01:44;24.45;;;11.95;;
42904;SDS011;28550;51.228;4.528;2024-03-22T13:04:22;26.53;;;13.23;;
42904;SDS011;28550;51.228;4.528;2024-03-22T13:09:38;31.35;;;17.35;;
42904;SDS011;28550;51.228;4.528;2024-03-22T13:12:04;31.77;;;18.40;;
42904;SDS011;28550;51.228;4.528;2024-03-22T13:14:39;29.48;;;17.95;;
42904;SDS011;28550;51.228;4.528;2024-03-22T13:17:07;30.70;;;17.13;;
42904;SDS011;28550;51.228;4.528;2024-03-22T13:28:14;38.20;;;17.10;;
42904;SDS011;28550;51.228;4.528;2024-03-22T13:31:45;33.05;;;18.75;;
42904;SDS011;28550;51.228;4.528;2024-03-22T13:35:05;33.92;;;18.45;;
42904;SDS011;28550;51.228;4.528;2024-03-22T13:43:06;38.28;;;20.05;;
42904;SDS011;28550;51.228;4.528;2024-03-22T13:45:52;40.65;;;20.60;;
42904;SDS011;28550;51.228;4.528;2024-03-22T13:48:21;39.53;;;19.80;;
42904;SDS011;28550;51.228;4.528;2024-03-22T13:51:10;35.13;;;19.40;;
42904;SDS011;28550;51.228;4.528;2024-03-22T13:53:45;35.33;;;18.70;;
42904;SDS011;28550;51.228;4.528;2024-03-22T13:56:10;36.35;;;18.65;;
42904;SDS011;28550;51.228;4.528;2024-03-22T13:58:38;36.67;;;18.08;;
42904;SDS011;28550;51.228;4.528;2024-03-22T14:04:34;28.17;;;16.30;;
42904;SDS011;28550;51.228;4.528;2024-03-22T14:07:07;32.75;;;17.83;;
42904;SDS011;28550;51.228;4.528;2024-03-22T14:09:34;34.80;;;19.92;;
42904;SDS011;28550;51.228;4.528;2024-03-22T14:12:01;36.90;;;17.77;;
42904;SDS011;28550;51.228;4.528;2024-03-22T14:14:32;38.13;;;19.88;;
42904;SDS011;28550;51.228;4.528;2024-03-22T14:17:01;35.10;;;18.73;;
42904;SDS011;28550;51.228;4.528;2024-03-22T14:19:28;34.13;;;17.88;;
42904;SDS011;28550;51.228;4.528;2024-03-22T14:21:56;33.55;;;18.02;;
42904;SDS011;28550;51.228;4.528;2024-03-22T14:24:23;30.63;;;17.67;;
42904;SDS011;28550;51.228;4.528;2024-03-22T14:29:32;29.95;;;16.58;;
42904;SDS011;28550;51.228;4.528;2024-03-22T14:34:33;34.90;;;17.10;;
42904;SDS011;28550;51.228;4.528;2024-03-22T14:36:59;32.65;;;18.98;;
42904;SDS011;28550;51.228;4.528;2024-03-22T14:39:24;30.73;;;17.58;;
42904;SDS011;28550;51.228;4.528;2024-03-22T14:41:50;25.55;;;15.70;;
42904;SDS011;28550;51.228;4.528;2024-03-22T14:44:16;31.88;;;17.88;;
42904;SDS011;28550;51.228;4.528;2024-03-22T14:46:43;30.92;;;17.63;;
42904;SDS011;28550;51.228;4.528;2024-03-22T14:49:11;31.83;;;17.23;;
42904;SDS011;28550;51.228;4.528;2024-03-22T14:51:37;30.13;;;16.20;;
42904;SDS011;28550;51.228;4.528;2024-03-22T14:54:03;29.67;;;16.70;;
42904;SDS011;28550;51.228;4.528;2024-03-22T14:56:30;31.17;;;17.52;;
42904;SDS011;28550;51.228;4.528;2024-03-22T14:59:01;29.55;;;16.90;;
42904;SDS011;28550;51.228;4.528;2024-03-22T15:01:30;26.90;;;16.25;;
42904;SDS011;28550;51.228;4.528;2024-03-22T15:03:56;25.27;;;14.73;;
42904;SDS011;28550;51.228;4.528;2024-03-22T15:06:22;27.60;;;14.75;;
42904;SDS011;28550;51.228;4.528;2024-03-22T15:08:48;25.63;;;14.32;;
42904;SDS011;28550;51.228;4.528;2024-03-22T15:11:13;31.27;;;16.00;;
42904;SDS011;28550;51.228;4.528;2024-03-22T15:13:39;27.50;;;15.57;;
42904;SDS011;28550;51.228;4.528;2024-03-22T15:16:05;28.50;;;14.93;;
42904;SDS011;28550;51.228;4.528;2024-03-22T15:18:31;27.70;;;14.80;;
42904;SDS011;28550;51.228;4.528;2024-03-22T15:20:56;24.67;;;13.48;;
42904;SDS011;28550;51.228;4.528;2024-03-22T15:23:22;24.50;;;13.75;;
42904;SDS011;28550;51.228;4.528;2024-03-22T15:25:48;31.27;;;14.82;;
42904;SDS011;28550;51.228;4.528;2024-03-22T15:28:14;24.85;;;13.85;;
42904;SDS011;28550;51.228;4.528;2024-03-22T15:30:40;24.58;;;13.85;;
42904;SDS011;28550;51.228;4.528;2024-03-22T15:33:10;23.42;;;13.50;;
42904;SDS011;28550;51.228;4.528;2024-03-22T15:35:37;23.45;;;13.77;;
42904;SDS011;28550;51.228;4.528;2024-03-22T15:38:03;25.25;;;14.95;;
42904;SDS011;28550;51.228;4.528;2024-03-22T15:40:30;26.45;;;14.93;;
42904;SDS011;28550;51.228;4.528;2024-03-22T15:42:59;23.50;;;13.88;;
42904;SDS011;28550;51.228;4.528;2024-03-22T15:45:25;25.20;;;13.57;;
42904;SDS011;28550;51.228;4.528;2024-03-22T15:47:51;27.63;;;14.90;;
42904;SDS011;28550;51.228;4.528;2024-03-22T15:50:20;26.63;;;13.65;;
42904;SDS011;28550;51.228;4.528;2024-03-22T15:52:46;26.67;;;14.15;;
42904;SDS011;28550;51.228;4.528;2024-03-22T15:55:13;24.45;;;13.80;;
42904;SDS011;28550;51.228;4.528;2024-03-22T15:57:38;32.80;;;17.65;;
42904;SDS011;28550;51.228;4.528;2024-03-22T16:00:04;26.77;;;14.32;;
42904;SDS011;28550;51.228;4.528;2024-03-22T16:02:36;29.70;;;14.50;;
42904;SDS011;28550;51.228;4.528;2024-03-22T16:05:05;23.17;;;12.73;;
42904;SDS011;28550;51.228;4.528;2024-03-22T16:07:32;20.25;;;11.40;;
42904;SDS011;28550;51.228;4.528;2024-03-22T16:09:58;21.58;;;10.00;;
42904;SDS011;28550;51.228;4.528;2024-03-22T16:12:27;14.82;;;9.65;;
42904;SDS011;28550;51.228;4.528;2024-03-22T16:14:53;24.58;;;12.98;;
42904;SDS011;28550;51.228;4.528;2024-03-22T16:17:19;48.08;;;24.63;;
42904;SDS011;28550;51.228;4.528;2024-03-22T16:19:44;31.25;;;16.13;;
42904;SDS011;28550;51.228;4.528;2024-03-22T16:22:11;29.27;;;15.57;;
42904;SDS011;28550;51.228;4.528;2024-03-22T16:24:37;43.13;;;20.60;;
42904;SDS011;28550;51.228;4.528;2024-03-22T16:27:03;33.58;;;18.92;;
42904;SDS011;28550;51.228;4.528;2024-03-22T16:29:28;31.42;;;17.52;;
42904;SDS011;28550;51.228;4.528;2024-03-22T16:31:54;28.63;;;17.83;;
42904;SDS011;28550;51.228;4.528;2024-03-22T16:34:20;31.67;;;18.58;;
42904;SDS011;28550;51.228;4.528;2024-03-22T16:36:45;25.63;;;16.15;;
42904;SDS011;28550;51.228;4.528;2024-03-22T16:39:11;30.88;;;15.90;;
42904;SDS011;28550;51.228;4.528;2024-03-22T16:41:37;31.33;;;15.48;;
42904;SDS011;28550;51.228;4.528;2024-03-22T16:44:02;25.30;;;13.07;;
42904;SDS011;28550;51.228;4.528;2024-03-22T16:46:28;24.85;;;13.23;;
42904;SDS011;28550;51.228;4.528;2024-03-22T16:48:54;31.60;;;18.42;;
42904;SDS011;28550;51.228;4.528;2024-03-22T16:51:22;36.53;;;19.42;;
42904;SDS011;28550;51.228;4.528;2024-03-22T16:53:47;28.70;;;17.90;;
42904;SDS011;28550;51.228;4.528;2024-03-22T16:56:13;45.70;;;22.70;;
42904;SDS011;28550;51.228;4.528;2024-03-22T16:58:39;92.38;;;43.75;;
42904;SDS011;28550;51.228;4.528;2024-03-22T17:01:05;101.07;;;44.45;;
42904;SDS011;28550;51.228;4.528;2024-03-22T17:03:34;142.07;;;59.83;;
42904;SDS011;28550;51.228;4.528;2024-03-22T17:06:00;110.47;;;43.90;;
42904;SDS011;28550;51.228;4.528;2024-03-22T17:08:27;129.32;;;51.25;;
42904;SDS011;28550;51.228;4.528;2024-03-22T17:10:53;115.93;;;51.30;;
42904;SDS011;28550;51.228;4.528;2024-03-22T17:13:21;74.82;;;36.35;;
42904;SDS011;28550;51.228;4.528;2024-03-22T17:15:47;63.65;;;29.50;;
42904;SDS011;28550;51.228;4.528;2024-03-22T17:18:13;50.97;;;28.45;;
42904;SDS011;28550;51.228;4.528;2024-03-22T17:20:39;42.25;;;24.13;;
42904;SDS011;28550;51.228;4.528;2024-03-22T17:23:07;46.75;;;23.00;;
42904;SDS011;28550;51.228;4.528;2024-03-22T17:25:32;43.20;;;20.35;;
42904;SDS011;28550;51.228;4.528;2024-03-22T17:27:58;42.58;;;22.10;;
42904;SDS011;28550;51.228;4.528;2024-03-22T17:30:24;38.70;;;21.58;;
42904;SDS011;28550;51.228;4.528;2024-03-22T17:32:49;35.83;;;18.83;;
42904;SDS011;28550;51.228;4.528;2024-03-22T17:35:15;48.55;;;19.83;;
42904;SDS011;28550;51.228;4.528;2024-03-22T17:37:42;33.83;;;17.23;;
42904;SDS011;28550;51.228;4.528;2024-03-22T17:40:08;43.28;;;19.23;;
42904;SDS011;28550;51.228;4.528;2024-03-22T17:42:34;52.35;;;29.15;;
42904;SDS011;28550;51.228;4.528;2024-03-22T17:45:00;53.00;;;25.38;;
42904;SDS011;28550;51.228;4.528;2024-03-22T17:47:29;40.22;;;21.25;;
42904;SDS011;28550;51.228;4.528;2024-03-22T17:49:55;47.10;;;23.08;;
42904;SDS011;28550;51.228;4.528;2024-03-22T17:52:21;41.20;;;21.27;;
42904;SDS011;28550;51.228;4.528;2024-03-22T17:54:49;47.35;;;19.73;;
42904;SDS011;28550;51.228;4.528;2024-03-22T17:57:16;39.35;;;17.73;;
42904;SDS011;28550;51.228;4.528;2024-03-22T17:59:42;33.40;;;16.98;;
42904;SDS011;28550;51.228;4.528;2024-03-22T18:02:10;35.25;;;19.63;;
42904;SDS011;28550;51.228;4.528;2024-03-22T18:04:38;37.95;;;20.52;;
42904;SDS011;28550;51.228;4.528;2024-03-22T18:07:11;43.83;;;23.13;;
42904;SDS011;28550;51.228;4.528;2024-03-22T18:09:41;63.80;;;34.38;;
42904;SDS011;28550;51.228;4.528;2024-03-22T18:12:08;37.95;;;22.27;;
42904;SDS011;28550;51.228;4.528;2024-03-22T18:14:34;33.22;;;18.60;;
42904;SDS011;28550;51.228;4.528;2024-03-22T18:16:59;36.47;;;18.58;;
42904;SDS011;28550;51.228;4.528;2024-03-22T18:19:26;33.00;;;18.45;;
42904;SDS011;28550;51.228;4.528;2024-03-22T18:21:52;38.38;;;17.63;;
42904;SDS011;28550;51.228;4.528;2024-03-22T18:24:20;41.30;;;21.48;;
42904;SDS011;28550;51.228;4.528;2024-03-22T18:26:46;45.05;;;24.23;;
42904;SDS011;28550;51.228;4.528;2024-03-22T18:29:12;38.30;;;20.40;;
42904;SDS011;28550;51.228;4.528;2024-03-22T18:31:38;38.33;;;16.98;;
42904;SDS011;28550;51.228;4.528;2024-03-22T18:34:03;34.42;;;16.13;;
42904;SDS011;28550;51.228;4.528;2024-03-22T18:36:31;32.38;;;16.70;;
42904;SDS011;28550;51.228;4.528;2024-03-22T18:38:59;33.40;;;16.55;;
42904;SDS011;28550;51.228;4.528;2024-03-22T18:41:25;38.88;;;18.35;;
42904;SDS011;28550;51.228;4.528;2024-03-22T18:43:50;33.60;;;18.40;;
42904;SDS011;28550;51.228;4.528;2024-03-22T18:46:18;46.00;;;21.38;;
42904;SDS011;28550;51.228;4.528;2024-03-22T18:48:46;42.47;;;21.42;;
42904;SDS011;28550;51.228;4.528;2024-03-22T18:51:12;58.83;;;28.70;;
42904;SDS011;28550;51.228;4.528;2024-03-22T18:53:39;92.53;;;46.25;;
42904;SDS011;28550;51.228;4.528;2024-03-22T18:56:04;60.53;;;29.33;;
42904;SDS011;28550;51.228;4.528;2024-03-22T18:58:30;70.22;;;31.83;;
42904;SDS011;28550;51.228;4.528;2024-03-22T19:00:56;60.45;;;28.92;;
42904;SDS011;28550;51.228;4.528;2024-03-22T19:03:22;45.03;;;19.63;;
42904;SDS011;28550;51.228;4.528;2024-03-22T19:05:47;33.95;;;16.05;;
42904;SDS011;28550;51.228;4.528;2024-03-22T19:08:14;36.85;;;15.27;;
42904;SDS011;28550;51.228;4.528;2024-03-22T19:10:41;31.10;;;13.48;;
42904;SDS011;28550;51.228;4.528;2024-03-22T19:13:07;30.65;;;14.77;;
42904;SDS011;28550;51.228;4.528;2024-03-22T19:15:36;37.60;;;13.98;;
42904;SDS011;28550;51.228;4.528;2024-03-22T19:20:31;28.33;;;13.13;;
42904;SDS011;28550;51.228;4.528;2024-03-22T19:22:57;30.33;;;11.80;;
42904;SDS011;28550;51.228;4.528;2024-03-22T19:25:25;32.10;;;13.98;;
42904;SDS011;28550;51.228;4.528;2024-03-22T19:27:51;31.85;;;13.75;;
42904;SDS011;28550;51.228;4.528;2024-03-22T19:30:17;27.38;;;13.35;;
42904;SDS011;28550;51.228;4.528;2024-03-22T19:32:46;29.55;;;14.68;;
42904;SDS011;28550;51.228;4.528;2024-03-22T19:35:13;34.95;;;15.45;;
42904;SDS011;28550;51.228;4.528;2024-03-22T19:37:39;32.95;;;15.75;;
42904;SDS011;28550;51.228;4.528;2024-03-22T19:40:08;34.70;;;14.75;;
42904;SDS011;28550;51.228;4.528;2024-03-22T19:42:39;32.08;;;15.50;;
42904;SDS011;28550;51.228;4.528;2024-03-22T19:45:05;39.90;;;17.15;;
42904;SDS011;28550;51.228;4.528;2024-03-22T19:47:31;34.05;;;15.82;;
42904;SDS011;28550;51.228;4.528;2024-03-22T19:50:01;38.28;;;15.02;;
42904;SDS011;28550;51.228;4.528;2024-03-22T19:52:27;29.92;;;15.02;;
42904;SDS011;28550;51.228;4.528;2024-03-22T19:54:53;32.97;;;14.23;;
42904;SDS011;28550;51.228;4.528;2024-03-22T19:57:18;39.10;;;15.63;;
42904;SDS011;28550;51.228;4.528;2024-03-22T19:59:45;31.45;;;15.10;;
42904;SDS011;28550;51.228;4.528;2024-03-22T20:02:11;31.10;;;15.70;;
42904;SDS011;28550;51.228;4.528;2024-03-22T20:04:36;38.05;;;16.30;;
42904;SDS011;28550;51.228;4.528;2024-03-22T20:07:03;31.40;;;15.48;;
42904;SDS011;28550;51.228;4.528;2024-03-22T20:09:31;38.95;;;14.50;;
42904;SDS011;28550;51.228;4.528;2024-03-22T20:11:57;35.72;;;13.90;;
42904;SDS011;28550;51.228;4.528;2024-03-22T20:14:24;34.30;;;13.10;;
42904;SDS011;28550;51.228;4.528;2024-03-22T20:16:52;33.50;;;13.65;;
42904;SDS011;28550;51.228;4.528;2024-03-22T20:19:19;32.20;;;14.77;;
42904;SDS011;28550;51.228;4.528;2024-03-22T20:21:46;32.92;;;13.88;;
42904;SDS011;28550;51.228;4.528;2024-03-22T20:24:12;31.92;;;12.88;;
42904;SDS011;28550;51.228;4.528;2024-03-22T20:26:38;35.47;;;14.30;;
42904;SDS011;28550;51.228;4.528;2024-03-22T20:29:13;31.90;;;13.25;;
42904;SDS011;28550;51.228;4.528;2024-03-22T20:31:38;31.80;;;13.65;;
42904;SDS011;28550;51.228;4.528;2024-03-22T20:34:09;37.30;;;14.20;;
